Wetterdaten: aktuell Freitag, 30.10.2020 14:16
Datum Zeit Temp. A. Feuchte A. Luftdruck Niederschlag Wind Richtung Richtung Sonnenschein ET Solar Taupunkt Windben
30.10.2020 14:16 15.2 C 72 % 1025.1 hPa 0.0 l/m 8.9 km/h (2 Bft) NO 45 52 min 0.254 mm 213 W/m 10.2 C 12.9 km/h (3 Bft)
30.10.2020 13:16 14.8 C 71 % 1025.4 hPa 0.0 l/m 3.0 km/h (1 Bft) NO 40 60 min 0.203 mm 457 W/m 9.6 C 4.8 km/h (1 Bft)
30.10.2020 12:12 14.1 C 75 % 1026.0 hPa 0.0 l/m 1.5 km/h (1 Bft) W-SW 252 57 min 0.178 mm 404 W/m 9.7 C 3.2 km/h (1 Bft)
30.10.2020 11:12 12.4 C 81 % 1026.4 hPa 0.0 l/m 8.8 km/h (2 Bft) S 186 1 min 0.127 mm 190 W/m 9.2 C 11.3 km/h (2 Bft)
30.10.2020 10:13 12.1 C 84 % 1026.5 hPa 0.0 l/m 2.6 km/h (1 Bft) W-SW 250 28 min 0.127 mm 255 W/m 9.5 C 3.2 km/h (1 Bft)
30.10.2020 09:10 9.8 C 92 % 1026.7 hPa 0.0 l/m 5.2 km/h (1 Bft) W 275 0 min 0.026 mm 218 W/m 8.6 C 6.4 km/h (2 Bft)
30.10.2020 08:09 8.3 C 94 % 1026.4 hPa 0.0 l/m 1.6 km/h (1 Bft) W-SW 247 0 min 0.025 mm 58 W/m 7.4 C 3.2 km/h (1 Bft)
30.10.2020 07:14 8.2 C 94 % 1025.9 hPa 0.0 l/m 3.2 km/h (1 Bft) W 270 0 min 0.000 mm 12 W/m 7.3 C 4.8 km/h (1 Bft)
30.10.2020 06:19 8.5 C 94 % 1025.5 hPa 0.0 l/m 4.8 km/h (1 Bft) W 270 0 min 0.000 mm 0 W/m 7.6 C 6.4 km/h (2 Bft)
30.10.2020 05:24 8.7 C 94 % 1025.2 hPa 0.0 l/m 9.7 km/h (2 Bft) W 270 0 min 0.000 mm 0 W/m 7.8 C 12.9 km/h (3 Bft)
30.10.2020 04:29 8.8 C 94 % 1025.4 hPa 0.0 l/m 4.8 km/h (1 Bft) W-SW 247 0 min 0.000 mm 0 W/m 7.9 C 6.4 km/h (2 Bft)
30.10.2020 03:30 9.1 C 94 % 1025.4 hPa 0.0 l/m 2.3 km/h (1 Bft) SW 234 0 min 0.000 mm 0 W/m 8.2 C 4.8 km/h (1 Bft)
30.10.2020 02:30 9.1 C 94 % 1025.4 hPa 0.2 l/m 4.0 km/h (1 Bft) W-NW 300 0 min 0.000 mm 0 W/m 8.2 C 6.4 km/h (2 Bft)
30.10.2020 01:30 9.2 C 94 % 1025.4 hPa 0.4 l/m 7.3 km/h (2 Bft) SW 231 0 min 0.000 mm 0 W/m 8.3 C 11.3 km/h (2 Bft)
30.10.2020 00:30 9.3 C 94 % 1025.5 hPa 0.4 l/m 3.2 km/h (1 Bft) SW 234 0 min 0.000 mm 0 W/m 8.4 C 4.8 km/h (1 Bft)
29.10.2020 23:32 9.3 C 93 % 1025.7 hPa 1.4 l/m 3.2 km/h (1 Bft) W-SW 258 0 min 0.000 mm 0 W/m 8.2 C 4.8 km/h (1 Bft)
29.10.2020 22:33 9.4 C 93 % 1025.2 hPa 1.6 l/m 4.0 km/h (1 Bft) W-SW 248 0 min 0.000 mm 0 W/m 8.3 C 6.4 km/h (2 Bft)
29.10.2020 21:31 9.6 C 93 % 1025.2 hPa 2.2 l/m 3.2 km/h (1 Bft) SW 217 0 min 0.000 mm 0 W/m 8.5 C 4.8 km/h (1 Bft)
29.10.2020 20:33 9.6 C 92 % 1024.9 hPa 1.6 l/m 1.7 km/h (1 Bft) SW 221 0 min 0.000 mm 0 W/m 8.4 C 3.2 km/h (1 Bft)
29.10.2020 19:36 9.8 C 92 % 1024.7 hPa 0.8 l/m 4.2 km/h (1 Bft) W-SW 249 0 min 0.000 mm 0 W/m 8.6 C 6.4 km/h (2 Bft)
29.10.2020 18:37 9.9 C 91 % 1024.7 hPa 0.4 l/m 1.8 km/h (1 Bft) SO 126 0 min 0.000 mm 0 W/m 8.5 C 3.2 km/h (1 Bft)
29.10.2020 17:38 10.1 C 91 % 1023.9 hPa 0.0 l/m 0.0 km/h (0 Bft) W-SW 246 0 min 0.000 mm 0 W/m 8.7 C 0.0 km/h (0 Bft)
29.10.2020 16:38 10.4 C 91 % 1023.3 hPa 0.6 l/m 3.2 km/h (1 Bft) W-SW 242 0 min 0.025 mm 7 W/m 9.0 C 4.8 km/h (1 Bft)
29.10.2020 15:40 10.6 C 91 % 1023.2 hPa 0.0 l/m 1.7 km/h (1 Bft) W 263 0 min 0.051 mm 19 W/m 9.2 C 3.2 km/h (1 Bft)
29.10.2020 15:00 10.6 C 90 % 1022.9 hPa 0.0 l/m 2.2 km/h (1 Bft) W 261 0 min 0.000 mm 67 W/m 9.0 C 4.8 km/h (1 Bft)
_ Min-Zeit 07:17 13:49 15:11 - 15:25 - - - - - 07:17 15:25
Minimum _ 8.1 C 69 % 1022.8 hPa - 0.0 km/h (0 Bft) - - - - - 7.2 C 0.0 km/h (0 Bft)
_ Max-Zeit 13:41 23:06 09:21 15:55 01:58 - - 09:32 14:00 13:34 13:39 01:58
Maximum _ 15.9 C 94 % 1026.8 hPa 0.2 l/m 13.2 km/h
W-SW (3 Bft)
- - 2 min 0.254 mm 589 W/m 10.7 C 17.7 km/h
W-SW (3 Bft)
Durchschnitt _ 10.3 C 90 % 1025.1 hPa #9.4 l/m 3.9 km/h (1 Bft) W-SW - #3:22 h #0.940 mm 259 W/m 8.6 C 6.1 km/h (2 Bft)
www.rheintalmeteo.ch | www.profiwetter.ch